Portada
METAR-TAF:

METAR-TAF

Aeroports :

Taitung, Taiwan

latitud: 22-45-17N, longitud: 121-06-06E, altitud: 44 m

Observació

L'informe es va fer fa 36 minuts, a les 00:30 UTC
Vent 10 kt del Nord, variant entre Nord-Oest i Nord-Est
Temperatura 24°C
Humitat 61%
Pressió 1020 hPa
Visibilitat 10 km o més
Escasses núvols a una alçada de 4500 ft

METAR: RCFN 140030Z 01010KT 310V050 9999 FEW045 24/16 Q1020 NOSIG RMK A3013

Hora: 09:06 (01:06 UTC)

Pronòstic

L'informe es va fer fa 2 hores i 6 minuts, a les 23:00 UTC
Pronòstic vàlid del 14 a les 00 UTC al 14 a les 24 UTC
Vent 10 kt del Nord
Visibilitat 10 km o més
Escasses núvols a una alçada de 2000 ft
Cel ennuvolat a una alçada de 3200 ft
Temporalment
l' 14 a les 04 UTC al 14 a les 10 UTC
Vent 15 kt del Nord-Est amb ràfegues de 25 kt
Temporalment
l' 14 a les 20 UTC al 14 a les 24 UTC
Vent 5 kt del Nord amb ràfegues de 15 kt

TAF: RCFN 132300Z 1400/1424 01010KT 9999 FEW020 BKN032 TEMPO 1404/1410 04015G25KT TEMPO 1420/1424 35005G15KT

Observacions i pronòstics meteorològics de més de 4000 aeroports (METAR i TAF).

Les estacions disponibles són els punts grocs i vermells al mapa.

Posi el ratolí al punt desitjat per veure el nom de l'estació.

Feu clic per veure les observacions i els pronòstics meteorològics.

Per canviar el mapa: feu clic els botons verds amb una creu de color negre per apropar; al botó verd amb un guió per allunyar la imatge; o en les fletxes verdes per a mapes adjacents.


METAR-TAF: